Time;durP1;ratioP1;P1;durP2;ratioP2;P2;SDS_P1;SDS_P2;PMS_P1;PMS_P2;Temp;Humidity;BMP_temperature;BMP_pressure;BME280_temperature;BME280_humidity;BME280_pressure;Samples;Min_cycle;Max_cycle;Signal;HPM_P1;HPM_P2
2022/07/07 00:00:07;;;;;;;;;;;20.10;73.90;20.20;100173.00;;;;341269;28;96499;-86
2022/07/07 00:00:19;;;;;;;;;;;20.10;73.90;20.20;100172.00;;;;344662;28;83493;-86
2022/07/07 00:00:30;;;;;;;;;;;20.10;73.90;20.20;100165.00;;;;345263;28;96269;-86
2022/07/07 00:00:42;;;;;;;;;;;20.10;74.00;20.20;100167.00;;;;342096;28;83322;-86
2022/07/07 00:00:54;;;;;;;;;;;20.10;74.00;20.20;100167.00;;;;345436;28;94827;-86
2022/07/07 00:01:06;;;;;;;;;;;20.10;73.90;20.20;100168.00;;;;344803;28;82912;-87
2022/07/07 00:01:18;;;;;;;;;;;20.10;74.00;20.20;100172.00;;;;342543;28;96617;-87
2022/07/07 00:01:29;;;;;;;;;;;20.10;74.00;20.10;100170.00;;;;344815;28;83322;-86
2022/07/07 00:01:41;;;;;;;;;;;20.10;73.90;20.10;100175.00;;;;345264;28;96973;-87
2022/07/07 00:01:53;;;;;;;;;;;20.10;73.90;20.20;100177.00;;;;342477;28;83462;-87
2022/07/07 00:02:05;;;;;;;;;;;20.10;74.00;20.20;100169.00;;;;344752;28;96285;-86
2022/07/07 00:02:17;;;;;;;;;;;20.10;74.00;20.10;100170.00;;;;344662;28;83402;-87
2022/07/07 00:02:29;;;;;;;;;;;20.10;74.10;20.10;100158.00;;;;343947;28;96605;-88
2022/07/07 00:02:40;;;;;;;;;;;20.10;74.00;20.10;100167.00;;;;346117;28;83369;-86
2022/07/07 00:02:52;;;;;;;;;;;20.10;73.90;20.10;100173.00;;;;345348;28;94196;-86
2022/07/07 00:03:04;;;;;;;;;;;20.10;74.10;20.20;100165.00;;;;344387;28;82560;-87
2022/07/07 00:03:17;;;;;;;;;;;20.10;74.00;20.20;100169.00;;;;343908;28;96777;-86
2022/07/07 00:03:29;;;;;;;;;;;20.10;74.00;20.20;100169.00;;;;343337;28;82605;-86
2022/07/07 00:03:42;;;;;;;;;;;20.10;74.00;20.20;100169.00;;;;343912;28;97354;-86
2022/07/07 00:03:54;;;;;;;;;;;20.10;74.00;20.20;100165.00;;;;344675;28;83463;-86
2022/07/07 00:04:05;;;;;;;;;;;20.10;73.90;20.10;100169.00;;;;342618;28;93998;-87
2022/07/07 00:04:17;;;;;;;;;;;20.10;73.80;20.10;100171.00;;;;344738;28;83520;-87
2022/07/07 00:04:29;;;;;;;;;;;20.10;73.80;20.10;100167.00;;;;343863;28;95306;-86
2022/07/07 00:04:41;;;;;;;;;;;20.00;73.80;20.00;100167.00;;;;344692;28;83454;-87
2022/07/07 00:04:53;;;;;;;;;;;20.00;73.80;20.00;100168.00;;;;343539;28;95991;-87
2022/07/07 00:05:05;;;;;;;;;;;20.00;73.90;20.00;100167.00;;;;344611;28;82603;-87
2022/07/07 00:05:17;;;;;;;;;;;20.00;74.00;20.10;100172.00;;;;343786;28;96681;-87
2022/07/07 00:05:29;;;;;;;;;;;20.00;74.00;20.10;100169.00;;;;344702;28;82557;-87
2022/07/07 00:05:41;;;;;;;;;;;20.00;74.00;20.10;100168.00;;;;342576;28;96480;-86
2022/07/07 00:05:53;;;;;;;;;;;20.00;74.10;20.10;100168.00;;;;344303;28;83545;-87
2022/07/07 00:06:05;;;;;;;;;;;20.00;74.00;20.10;100180.00;;;;341235;28;95390;-87
2022/07/07 00:06:17;;;;;;;;;;;20.00;74.00;20.00;100181.00;;;;343391;28;83251;-87
2022/07/07 00:06:29;;;;;;;;;;;20.00;74.00;20.00;100170.00;;;;342519;28;96940;-86
2022/07/07 00:06:41;;;;;;;;;;;20.00;74.10;20.10;100162.00;;;;341978;28;82435;-86
2022/07/07 00:06:53;;;;;;;;;;;20.00;73.80;20.10;100155.00;;;;342755;28;93338;-86
2022/07/07 00:07:05;;;;;;;;;;;20.00;73.70;20.10;100168.00;;;;343379;28;83388;-87
2022/07/07 00:07:18;;;;;;;;;;;20.00;73.70;20.10;100161.00;;;;342561;28;95450;-87
2022/07/07 00:07:30;;;;;;;;;;;20.00;73.80;20.10;100171.00;;;;343331;28;83449;-87
2022/07/07 00:07:42;;;;;;;;;;;20.00;73.80;20.00;100163.00;;;;343980;28;97297;-86
2022/07/07 00:07:54;;;;;;;;;;;20.00;73.80;20.10;100168.00;;;;344328;28;86760;-86
2022/07/07 00:08:06;;;;;;;;;;;20.00;73.70;20.10;100167.00;;;;345111;28;96367;-86
2022/07/07 00:08:17;;;;;;;;;;;20.00;73.70;20.10;100172.00;;;;344709;28;83244;-87
2022/07/07 00:08:29;;;;;;;;;;;20.00;73.90;20.10;100166.00;;;;343958;28;95189;-86
2022/07/07 00:08:41;;;;;;;;;;;20.00;74.50;20.10;100160.00;;;;343418;28;82396;-87
2022/07/07 00:08:54;;;;;;;;;;;20.00;74.00;20.10;100162.00;;;;343734;28;94435;-87
2022/07/07 00:09:06;;;;;;;;;;;20.00;74.00;20.10;100161.00;;;;343348;28;83465;-86
2022/07/07 00:09:18;;;;;;;;;;;20.00;74.00;20.20;100168.00;;;;344014;28;96335;-86
2022/07/07 00:09:30;;;;;;;;;;;20.00;73.90;20.10;100162.00;;;;343409;28;82310;-86
2022/07/07 00:09:42;;;;;;;;;;;20.00;74.00;20.00;100168.00;;;;344092;28;92716;-87
2022/07/07 00:09:53;;;;;;;;;;;20.00;74.00;20.10;100166.00;;;;344675;28;83281;-87
2022/07/07 00:10:05;;;;;;;;;;;20.00;74.10;20.10;100164.00;;;;342513;28;96450;-86
2022/07/07 00:10:17;;;;;;;;;;;20.00;74.00;20.10;100169.00;;;;344832;28;83264;-87
2022/07/07 00:10:29;;;;;;;;;;;20.00;73.90;20.10;100169.00;;;;345296;28;96688;-87
2022/07/07 00:10:41;;;;;;;;;;;20.00;73.70;20.10;100168.00;;;;343395;28;83443;-87
2022/07/07 00:10:53;;;;;;;;;;;19.90;73.70;20.10;100159.00;;;;345845;28;95581;-87
2022/07/07 00:11:04;;;;;;;;;;;20.00;73.80;20.10;100169.00;;;;344698;28;82532;-87
2022/07/07 00:11:16;;;;;;;;;;;20.00;73.80;20.10;100163.00;;;;345204;28;97210;-86
2022/07/07 00:11:28;;;;;;;;;;;20.00;73.80;20.10;100159.00;;;;344700;28;83369;-86
2022/07/07 00:11:40;;;;;;;;;;;20.00;73.70;20.10;100165.00;;;;341383;28;94179;-87
2022/07/07 00:11:52;;;;;;;;;;;20.00;73.70;20.10;100161.00;;;;343216;28;84335;-87
2022/07/07 00:12:04;;;;;;;;;;;20.00;73.90;20.10;100147.00;;;;343761;28;96648;-84
2022/07/07 00:12:16;;;;;;;;;;;20.00;73.80;20.10;100166.00;;;;344808;28;83184;-86
2022/07/07 00:12:28;;;;;;;;;;;20.00;73.80;20.10;100165.00;;;;345282;28;95596;-85
2022/07/07 00:12:39;;;;;;;;;;;20.00;74.00;20.10;100154.00;;;;346164;28;83292;-86
2022/07/07 00:12:51;;;;;;;;;;;20.00;74.00;20.10;100154.00;;;;346727;28;96554;-87
2022/07/07 00:13:03;;;;;;;;;;;20.00;74.00;20.10;100148.00;;;;344662;28;83337;-86
2022/07/07 00:13:15;;;;;;;;;;;20.00;73.80;20.10;100161.00;;;;343807;28;97330;-86
2022/07/07 00:13:27;;;;;;;;;;;20.00;74.40;20.10;100163.00;;;;346109;28;83475;-86
2022/07/07 00:13:39;;;;;;;;;;;20.00;73.80;20.10;100157.00;;;;342610;28;97159;-86
2022/07/07 00:13:51;;;;;;;;;;;20.00;74.10;20.10;100154.00;;;;343822;28;83562;-85
2022/07/07 00:14:07;;;;;;;;;;;20.00;73.90;20.10;100158.00;;;;342948;28;97254;-86
2022/07/07 00:14:18;;;;;;;;;;;20.00;73.90;20.10;100157.00;;;;345321;28;82510;-86
2022/07/07 00:14:30;;;;;;;;;;;20.00;73.80;20.10;100154.00;;;;343917;28;93860;-86
2022/07/07 00:14:42;;;;;;;;;;;20.00;73.80;20.10;100165.00;;;;344766;28;83191;-85
2022/07/07 00:14:54;;;;;;;;;;;20.00;73.80;20.10;100161.00;;;;342444;28;95549;-86
2022/07/07 00:15:06;;;;;;;;;;;20.00;73.70;20.10;100151.00;;;;343370;28;82506;-86
2022/07/07 00:15:18;;;;;;;;;;;20.00;73.70;20.10;100160.00;;;;342554;28;95699;-85
2022/07/07 00:15:30;;;;;;;;;;;20.00;73.60;20.10;100153.00;;;;344663;28;83493;-85
2022/07/07 00:15:45;;;;;;;;;;;20.00;73.40;20.10;100158.00;;;;342572;28;96726;-86
2022/07/07 00:15:57;;;;;;;;;;;20.00;73.30;20.10;100157.00;;;;343321;28;83505;-89
2022/07/07 00:16:09;;;;;;;;;;;20.00;73.30;20.10;100165.00;;;;344001;28;94093;-87
2022/07/07 00:16:21;;;;;;;;;;;20.00;73.30;20.10;100151.00;;;;343249;28;83444;-87
2022/07/07 00:16:33;;;;;;;;;;;20.00;73.40;20.10;100153.00;;;;343655;28;95249;-89
2022/07/07 00:16:45;;;;;;;;;;;20.00;73.40;20.10;100158.00;;;;343355;28;82532;-89
2022/07/07 00:16:57;;;;;;;;;;;20.00;73.50;20.10;100150.00;;;;343894;28;95615;-89
2022/07/07 00:17:09;;;;;;;;;;;20.00;73.60;20.10;100150.00;;;;342095;28;82505;-90
2022/07/07 00:17:22;;;;;;;;;;;20.00;73.50;20.10;100156.00;;;;344627;28;96431;-88
2022/07/07 00:17:34;;;;;;;;;;;20.00;73.60;20.10;100147.00;;;;346186;28;83213;-88
2022/07/07 00:17:46;;;;;;;;;;;20.00;73.60;20.10;100147.00;;;;343943;28;96910;-88
2022/07/07 00:17:58;;;;;;;;;;;20.00;73.60;20.10;100155.00;;;;344528;28;83531;-89
2022/07/07 00:18:10;;;;;;;;;;;20.00;73.60;20.10;100154.00;;;;342557;28;96952;-89
2022/07/07 00:18:21;;;;;;;;;;;20.00;73.40;20.10;100148.00;;;;344457;28;83382;-90
2022/07/07 00:18:34;;;;;;;;;;;20.00;73.50;20.10;100154.00;;;;346353;28;95444;-90
2022/07/07 00:18:46;;;;;;;;;;;20.00;73.50;20.10;100153.00;;;;344579;28;83433;-90
2022/07/07 00:18:58;;;;;;;;;;;20.00;73.70;20.10;100151.00;;;;346774;28;94440;-90
2022/07/07 00:19:09;;;;;;;;;;;20.00;73.70;20.20;100148.00;;;;346045;28;83490;-89
2022/07/07 00:19:21;;;;;;;;;;;20.00;73.70;20.10;100152.00;;;;343943;28;94197;-89
2022/07/07 00:19:33;;;;;;;;;;;20.00;73.70;20.10;100163.00;;;;345943;28;83569;-89
2022/07/07 00:19:45;;;;;;;;;;;20.00;73.70;20.10;100147.00;;;;343354;28;95170;-90
2022/07/07 00:19:57;;;;;;;;;;;20.00;73.70;20.10;100153.00;;;;344189;28;83674;-90
2022/07/07 00:20:09;;;;;;;;;;;20.00;73.90;20.10;100147.00;;;;342470;28;96551;-90
2022/07/07 00:20:21;;;;;;;;;;;20.00;73.90;20.10;100157.00;;;;342903;28;83384;-89
2022/07/07 00:20:33;;;;;;;;;;;20.00;73.90;20.10;100154.00;;;;343977;28;96495;-91
2022/07/07 00:20:44;;;;;;;;;;;20.00;73.80;20.10;100148.00;;;;344310;28;83514;-90
2022/07/07 00:20:56;;;;;;;;;;;20.00;74.40;20.10;100148.00;;;;345077;28;93883;-89
2022/07/07 00:21:08;;;;;;;;;;;20.00;74.00;20.10;100149.00;;;;344617;28;83459;-90
2022/07/07 00:21:20;;;;;;;;;;;20.00;74.20;20.10;100147.00;;;;345363;28;96324;-90
2022/07/07 00:21:32;;;;;;;;;;;20.00;73.90;20.10;100139.00;;;;346077;28;83588;-91
2022/07/07 00:21:44;;;;;;;;;;;20.00;73.80;20.10;100136.00;;;;344027;28;95405;-91
2022/07/07 00:21:55;;;;;;;;;;;20.00;73.80;20.00;100147.00;;;;345798;28;83521;-90
2022/07/07 00:22:07;;;;;;;;;;;20.00;73.90;20.10;100146.00;;;;342625;28;96920;-91
2022/07/07 00:22:19;;;;;;;;;;;20.00;73.80;20.10;100148.00;;;;344643;28;82588;-90
2022/07/07 00:22:31;;;;;;;;;;;20.00;73.80;20.00;100149.00;;;;345256;28;95399;-91
2022/07/07 00:22:42;;;;;;;;;;;20.00;73.90;20.00;100146.00;;;;347554;28;82414;-90
2022/07/07 00:22:54;;;;;;;;;;;20.00;73.90;20.00;100147.00;;;;343143;28;94450;-90
2022/07/07 00:23:06;;;;;;;;;;;20.00;74.00;20.10;100147.00;;;;344630;28;83820;-90
2022/07/07 00:23:18;;;;;;;;;;;20.00;74.00;20.00;100149.00;;;;345032;28;95460;-90
2022/07/07 00:23:30;;;;;;;;;;;20.00;74.00;20.10;100146.00;;;;347296;28;82629;-89
2022/07/07 00:23:41;;;;;;;;;;;20.00;74.10;20.00;100147.00;;;;345125;28;96622;-90
2022/07/07 00:23:53;;;;;;;;;;;20.00;74.00;20.10;100145.00;;;;343919;28;82730;-89
2022/07/07 00:24:06;;;;;;;;;;;20.00;73.90;20.10;100147.00;;;;343841;28;96666;-90
2022/07/07 00:24:17;;;;;;;;;;;20.00;74.00;20.10;100150.00;;;;344637;28;83333;-90
2022/07/07 00:24:29;;;;;;;;;;;20.00;74.00;20.10;100147.00;;;;346674;28;96530;-90
2022/07/07 00:24:41;;;;;;;;;;;20.00;74.00;20.10;100148.00;;;;346085;28;83490;-90
2022/07/07 00:24:53;;;;;;;;;;;20.00;74.00;20.00;100141.00;;;;342855;28;94814;-90
2022/07/07 00:25:06;;;;;;;;;;;20.00;74.10;20.10;100149.00;;;;344721;28;82431;-90
2022/07/07 00:25:18;;;;;;;;;;;20.00;74.10;20.10;100153.00;;;;345009;28;95629;-90
2022/07/07 00:25:30;;;;;;;;;;;20.00;74.20;20.00;100147.00;;;;346145;28;83295;-90
2022/07/07 00:25:41;;;;;;;;;;;20.00;74.00;20.10;100146.00;;;;342702;28;95373;-90
2022/07/07 00:25:53;;;;;;;;;;;20.00;74.00;20.10;100154.00;;;;342868;28;83674;-90
2022/07/07 00:26:05;;;;;;;;;;;20.00;74.00;20.10;100148.00;;;;342409;28;94466;-90
2022/07/07 00:26:17;;;;;;;;;;;20.00;74.00;20.10;100147.00;;;;344780;28;83464;-91
2022/07/07 00:26:30;;;;;;;;;;;20.00;74.00;20.00;100147.00;;;;344054;28;95992;-90
2022/07/07 00:26:42;;;;;;;;;;;20.00;74.30;20.10;100147.00;;;;343492;28;82414;-90
2022/07/07 00:26:53;;;;;;;;;;;20.00;74.00;20.10;100147.00;;;;346470;28;95896;-90
2022/07/07 00:27:05;;;;;;;;;;;20.00;74.00;20.00;100143.00;;;;344824;28;83481;-91
2022/07/07 00:27:17;;;;;;;;;;;20.00;74.00;20.00;100148.00;;;;342352;28;96614;-90
2022/07/07 00:27:28;;;;;;;;;;;20.00;74.00;20.10;100148.00;;;;344746;28;83344;-91
2022/07/07 00:27:40;;;;;;;;;;;20.00;74.00;20.00;100144.00;;;;343841;28;96965;-90
2022/07/07 00:27:52;;;;;;;;;;;19.90;74.00;20.10;100145.00;;;;344819;28;82563;-91
2022/07/07 00:28:04;;;;;;;;;;;20.00;74.00;20.10;100149.00;;;;343916;28;96550;-91
2022/07/07 00:28:16;;;;;;;;;;;20.00;74.10;20.10;100149.00;;;;344631;28;83466;-90
2022/07/07 00:28:27;;;;;;;;;;;20.00;74.00;20.10;100151.00;;;;346673;28;97300;-90
2022/07/07 00:28:39;;;;;;;;;;;19.90;74.00;20.10;100150.00;;;;346167;28;82532;-90
2022/07/07 00:28:51;;;;;;;;;;;20.00;74.00;20.00;100152.00;;;;342844;28;95725;-91
2022/07/07 00:29:03;;;;;;;;;;;20.00;74.10;20.10;100145.00;;;;346017;28;83574;-91
2022/07/07 00:29:15;;;;;;;;;;;20.00;74.10;20.10;100141.00;;;;343492;28;96622;-90
2022/07/07 00:29:27;;;;;;;;;;;20.00;74.00;20.00;100150.00;;;;344694;28;82490;-91
2022/07/07 00:29:39;;;;;;;;;;;20.00;74.00;20.00;100141.00;;;;341344;28;95537;-91
2022/07/07 00:29:50;;;;;;;;;;;20.00;73.90;20.00;100145.00;;;;342555;28;83406;-91
2022/07/07 00:30:03;;;;;;;;;;;20.00;74.00;20.00;100146.00;;;;343871;28;96591;-90
2022/07/07 00:30:15;;;;;;;;;;;19.90;73.80;20.00;100147.00;;;;344576;28;82589;-90
2022/07/07 00:30:27;;;;;;;;;;;20.00;73.90;20.10;100149.00;;;;342613;28;93731;-89
2022/07/07 00:30:39;;;;;;;;;;;20.00;73.90;20.00;100148.00;;;;344772;28;83449;-90
2022/07/07 00:30:51;;;;;;;;;;;20.00;74.00;20.10;100149.00;;;;345136;28;94775;-90
2022/07/07 00:31:03;;;;;;;;;;;20.00;74.00;20.00;100153.00;;;;344786;28;83628;-90
2022/07/07 00:31:14;;;;;;;;;;;20.00;74.00;20.10;100150.00;;;;345335;28;94363;-90
2022/07/07 00:31:26;;;;;;;;;;;20.00;74.00;20.10;100148.00;;;;347047;28;83596;-91
2022/07/07 00:31:38;;;;;;;;;;;19.90;73.80;20.00;100153.00;;;;343879;28;95732;-91
2022/07/07 00:31:50;;;;;;;;;;;20.00;74.00;20.00;100152.00;;;;346402;28;83649;-91
2022/07/07 00:32:02;;;;;;;;;;;20.00;74.00;20.00;100144.00;;;;344296;28;93171;-91
2022/07/07 00:32:14;;;;;;;;;;;20.00;74.00;20.00;100147.00;;;;344709;28;83400;-90
2022/07/07 00:32:26;;;;;;;;;;;20.00;74.00;20.00;100144.00;;;;345243;28;94497;-89
2022/07/07 00:32:38;;;;;;;;;;;19.90;74.00;20.00;100154.00;;;;343378;28;83531;-91
2022/07/07 00:32:49;;;;;;;;;;;20.00;74.10;20.00;100135.00;;;;342682;28;93057;-90
2022/07/07 00:33:01;;;;;;;;;;;20.00;74.00;20.00;100144.00;;;;343116;28;83738;-91
2022/07/07 00:33:14;;;;;;;;;;;20.00;74.20;20.00;100141.00;;;;342628;28;92946;-91
2022/07/07 00:33:27;;;;;;;;;;;19.90;74.10;20.00;100154.00;;;;344656;28;82544;-90
2022/07/07 00:33:39;;;;;;;;;;;19.90;74.20;20.00;100156.00;;;;342624;28;94338;-90
2022/07/07 00:33:51;;;;;;;;;;;19.90;74.10;20.10;100149.00;;;;346233;28;83121;-90
2022/07/07 00:34:03;;;;;;;;;;;19.90;74.00;20.10;100156.00;;;;343231;28;93677;-90
2022/07/07 00:34:15;;;;;;;;;;;20.00;74.10;20.10;100145.00;;;;344838;28;83254;-90
2022/07/07 00:34:26;;;;;;;;;;;20.00;74.00;20.10;100146.00;;;;342372;28;96954;-90
2022/07/07 00:34:38;;;;;;;;;;;20.00;74.10;20.10;100150.00;;;;341819;28;83497;-90
2022/07/07 00:34:50;;;;;;;;;;;20.00;74.10;20.10;100157.00;;;;343117;28;92443;-90
2022/07/07 00:35:02;;;;;;;;;;;20.00;74.10;20.10;100145.00;;;;347305;28;82540;-90
2022/07/07 00:35:14;;;;;;;;;;;20.00;74.00;20.10;100151.00;;;;343758;28;96974;-90
2022/07/07 00:35:25;;;;;;;;;;;20.00;74.00;20.10;100147.00;;;;345855;28;83412;-90
2022/07/07 00:35:37;;;;;;;;;;;20.00;74.10;20.10;100153.00;;;;344060;28;93960;-90
2022/07/07 00:35:49;;;;;;;;;;;20.00;74.50;20.10;100158.00;;;;344483;28;83722;-90
2022/07/07 00:36:01;;;;;;;;;;;20.00;74.20;20.10;100154.00;;;;345127;28;95274;-90
2022/07/07 00:36:13;;;;;;;;;;;20.00;73.90;20.00;100164.00;;;;346263;28;83078;-90
2022/07/07 00:36:25;;;;;;;;;;;20.00;73.90;20.00;100152.00;;;;345122;28;96862;-90
2022/07/07 00:36:39;;;;;;;;;;;19.90;73.90;20.00;100149.00;;;;343326;28;83437;-90
2022/07/07 00:36:51;;;;;;;;;;;19.90;74.00;20.00;100157.00;;;;344183;28;92467;-89
2022/07/07 00:37:03;;;;;;;;;;;20.00;73.90;20.00;100163.00;;;;344791;28;83312;-90
2022/07/07 00:37:15;;;;;;;;;;;20.00;73.90;20.10;100151.00;;;;343867;28;94512;-89
2022/07/07 00:37:27;;;;;;;;;;;20.00;73.90;20.10;100150.00;;;;344448;28;82586;-90
2022/07/07 00:37:39;;;;;;;;;;;20.00;74.00;20.00;100151.00;;;;342741;28;94143;-90
2022/07/07 00:37:51;;;;;;;;;;;19.90;74.00;20.00;100157.00;;;;342645;28;83566;-90
2022/07/07 00:38:03;;;;;;;;;;;19.90;74.00;20.00;100160.00;;;;342572;28;92838;-90
2022/07/07 00:38:15;;;;;;;;;;;20.00;74.10;20.00;100159.00;;;;344823;28;83297;-90
2022/07/07 00:38:26;;;;;;;;;;;19.90;74.00;20.00;100156.00;;;;345296;28;94820;-90
2022/07/07 00:38:38;;;;;;;;;;;19.90;74.00;20.00;100153.00;;;;345945;28;82366;-90
2022/07/07 00:38:50;;;;;;;;;;;19.90;74.20;20.00;100157.00;;;;344647;28;92078;-90
2022/07/07 00:39:02;;;;;;;;;;;19.90;74.30;20.00;100157.00;;;;343959;28;82664;-90
2022/07/07 00:39:14;;;;;;;;;;;20.00;74.30;20.00;100158.00;;;;342556;28;94463;-90
2022/07/07 00:39:26;;;;;;;;;;;19.90;74.00;19.90;100149.00;;;;344840;28;83195;-89
2022/07/07 00:39:37;;;;;;;;;;;19.90;74.00;20.00;100143.00;;;;343926;28;96510;-90
2022/07/07 00:39:49;;;;;;;;;;;19.90;74.00;20.00;100154.00;;;;345941;28;82417;-91
2022/07/07 00:40:01;;;;;;;;;;;19.90;74.10;20.00;100154.00;;;;345409;28;94040;-89
2022/07/07 00:40:12;;;;;;;;;;;19.90;74.00;20.00;100148.00;;;;347303;28;82472;-90
2022/07/07 00:40:24;;;;;;;;;;;19.90;74.00;20.00;100153.00;;;;343983;28;94360;-90
2022/07/07 00:40:36;;;;;;;;;;;19.90;74.00;20.00;100149.00;;;;347459;28;83392;-90
2022/07/07 00:40:51;;;;;;;;;;;19.90;74.00;19.90;100164.00;;;;346081;28;95776;-90
2022/07/07 00:41:05;;;;;;;;;;;19.90;73.90;19.90;100156.00;;;;345703;28;83625;-90
2022/07/07 00:41:17;;;;;;;;;;;19.90;74.00;19.90;100151.00;;;;345113;28;96514;-89
2022/07/07 00:41:28;;;;;;;;;;;19.90;74.00;19.90;100158.00;;;;343313;28;83319;-90
2022/07/07 00:41:40;;;;;;;;;;;19.90;74.00;19.90;100152.00;;;;342607;28;94763;-90
2022/07/07 00:41:52;;;;;;;;;;;19.90;74.00;19.90;100153.00;;;;346085;28;82624;-89
2022/07/07 00:42:04;;;;;;;;;;;19.90;74.00;20.00;100150.00;;;;345339;28;93473;-90
2022/07/07 00:42:16;;;;;;;;;;;19.90;74.10;20.00;100154.00;;;;343477;28;83395;-90
2022/07/07 00:42:28;;;;;;;;;;;19.90;74.20;20.00;100154.00;;;;345191;28;95978;-90
2022/07/07 00:42:39;;;;;;;;;;;19.90;74.30;20.00;100150.00;;;;344734;28;83297;-89
2022/07/07 00:42:51;;;;;;;;;;;19.90;74.10;19.90;100150.00;;;;345416;28;92412;-90
2022/07/07 00:43:04;;;;;;;;;;;19.90;74.10;19.90;100152.00;;;;346162;28;83406;-90
2022/07/07 00:43:17;;;;;;;;;;;19.80;74.10;19.90;100151.00;;;;342554;28;94595;-90
2022/07/07 00:43:38;;;;;;;;;;;19.90;74.10;20.00;100154.00;;;;346153;28;83339;-90
2022/07/07 00:43:49;;;;;;;;;;;19.90;74.20;19.90;100154.00;;;;344449;28;94606;-90
2022/07/07 00:44:01;;;;;;;;;;;19.90;74.40;19.90;100158.00;;;;342990;28;82370;-89
2022/07/07 00:44:13;;;;;;;;;;;19.80;74.30;19.90;100158.00;;;;343588;28;94788;-90
2022/07/07 00:44:25;;;;;;;;;;;19.90;74.40;19.80;100156.00;;;;344752;28;83275;-89
2022/07/07 00:44:37;;;;;;;;;;;19.80;74.30;19.90;100156.00;;;;344027;28;93239;-90
2022/07/07 00:44:49;;;;;;;;;;;19.90;74.20;19.90;100147.00;;;;344229;28;83463;-90
2022/07/07 00:45:01;;;;;;;;;;;19.80;74.30;19.90;100160.00;;;;343979;28;93458;-90
2022/07/07 00:45:13;;;;;;;;;;;19.80;74.30;19.90;100150.00;;;;346101;28;83208;-90
2022/07/07 00:45:25;;;;;;;;;;;19.80;74.30;19.90;100159.00;;;;343975;28;94647;-90
2022/07/07 00:45:37;;;;;;;;;;;19.80;74.20;19.90;100157.00;;;;343419;28;83199;-90
2022/07/07 00:45:49;;;;;;;;;;;19.80;74.30;19.90;100151.00;;;;342563;28;93398;-90
2022/07/07 00:46:01;;;;;;;;;;;19.90;74.30;19.90;100158.00;;;;344857;28;82408;-90
2022/07/07 00:46:13;;;;;;;;;;;19.90;74.30;19.90;100155.00;;;;345221;28;96070;-90
2022/07/07 00:46:25;;;;;;;;;;;19.80;74.40;19.90;100162.00;;;;343390;28;82490;-90
2022/07/07 00:46:46;;;;;;;;;;;19.80;74.40;19.90;100163.00;;;;342654;28;93449;-90
2022/07/07 00:46:58;;;;;;;;;;;19.80;74.40;19.90;100164.00;;;;347408;27;83384;-90
2022/07/07 00:47:10;;;;;;;;;;;19.80;74.30;19.90;100159.00;;;;343701;28;94914;-91
2022/07/07 00:47:22;;;;;;;;;;;19.80;74.30;19.90;100160.00;;;;344510;28;82665;-90
2022/07/07 00:47:34;;;;;;;;;;;19.80;74.50;19.90;100161.00;;;;342662;28;94311;-90
2022/07/07 00:47:46;;;;;;;;;;;19.80;74.50;19.90;100155.00;;;;343445;28;82777;-88
2022/07/07 00:47:58;;;;;;;;;;;19.80;74.70;19.90;100158.00;;;;344049;28;94425;-91
2022/07/07 00:48:10;;;;;;;;;;;19.80;74.60;19.90;100160.00;;;;345929;28;83387;-90
2022/07/07 00:48:22;;;;;;;;;;;19.80;74.50;20.00;100159.00;;;;342647;28;93987;-90
2022/07/07 00:48:36;;;;;;;;;;;19.80;74.50;19.90;100166.00;;;;343324;28;83428;-90
2022/07/07 00:48:48;;;;;;;;;;;19.80;74.50;20.00;100163.00;;;;343662;28;97202;-89
2022/07/07 00:48:59;;;;;;;;;;;19.90;74.40;20.00;100161.00;;;;341798;28;83463;-90
2022/07/07 00:49:11;;;;;;;;;;;19.90;74.50;19.90;100166.00;;;;341000;28;92080;-89
2022/07/07 00:49:23;;;;;;;;;;;19.80;74.60;19.90;100159.00;;;;341866;28;83329;-90
2022/07/07 00:49:38;;;;;;;;;;;19.80;74.30;19.90;100165.00;;;;341110;28;94630;-90
2022/07/07 00:49:50;;;;;;;;;;;19.80;74.40;19.90;100159.00;;;;343021;28;82636;-90
2022/07/07 00:50:02;;;;;;;;;;;19.80;74.40;19.90;100165.00;;;;343626;28;94759;-90
2022/07/07 00:50:14;;;;;;;;;;;19.80;74.30;19.90;100163.00;;;;344501;28;83266;-90
2022/07/07 00:50:26;;;;;;;;;;;19.80;74.40;19.80;100167.00;;;;343920;28;94097;-88
2022/07/07 00:50:38;;;;;;;;;;;19.80;74.40;19.80;100156.00;;;;343436;28;83567;-90
2022/07/07 00:50:50;;;;;;;;;;;19.80;74.50;19.90;100161.00;;;;343869;28;93788;-90
2022/07/07 00:51:04;;;;;;;;;;;19.80;74.40;19.80;100162.00;;;;344903;28;82284;-90
2022/07/07 00:51:15;;;;;;;;;;;19.80;74.40;19.80;100155.00;;;;341245;28;93714;-90
2022/07/07 00:51:28;;;;;;;;;;;19.80;74.40;19.80;100158.00;;;;347124;28;83452;-90
2022/07/07 00:51:40;;;;;;;;;;;19.80;74.50;19.70;100159.00;;;;344037;28;94050;-90
2022/07/07 00:51:52;;;;;;;;;;;19.80;74.60;19.80;100153.00;;;;344573;28;82665;-91
2022/07/07 00:52:05;;;;;;;;;;;19.70;74.50;19.70;100151.00;;;;342639;28;94415;-90
2022/07/07 00:52:18;;;;;;;;;;;19.70;74.60;19.80;100154.00;;;;343133;28;83590;-89
2022/07/07 00:52:29;;;;;;;;;;;19.70;74.60;19.80;100151.00;;;;345269;28;93715;-90
2022/07/07 00:52:41;;;;;;;;;;;19.70;74.70;19.70;100152.00;;;;345968;28;83351;-90
2022/07/07 00:52:53;;;;;;;;;;;19.70;74.50;19.70;100154.00;;;;345071;28;96538;-90
2022/07/07 00:53:05;;;;;;;;;;;19.70;74.40;19.70;100162.00;;;;344676;28;82560;-90
2022/07/07 00:53:17;;;;;;;;;;;19.70;74.50;19.80;100153.00;;;;345651;28;93707;-89
2022/07/07 00:53:29;;;;;;;;;;;19.70;74.50;19.80;100150.00;;;;346059;28;82330;-90
2022/07/07 00:53:41;;;;;;;;;;;19.70;74.70;19.80;100164.00;;;;343833;28;94200;-90
2022/07/07 00:53:53;;;;;;;;;;;19.70;74.90;19.80;100159.00;;;;344423;28;83590;-90
2022/07/07 00:54:04;;;;;;;;;;;19.70;74.70;19.80;100153.00;;;;344055;28;92609;-90
2022/07/07 00:54:16;;;;;;;;;;;19.70;74.60;19.80;100160.00;;;;344864;28;83166;-90
2022/07/07 00:54:28;;;;;;;;;;;19.70;74.80;19.80;100158.00;;;;343777;28;96626;-89
2022/07/07 00:54:40;;;;;;;;;;;19.70;74.70;19.80;100149.00;;;;343230;28;83531;-90
2022/07/07 00:54:53;;;;;;;;;;;19.70;74.70;19.80;100161.00;;;;345066;28;96682;-90
2022/07/07 00:55:08;;;;;;;;;;;19.70;74.70;19.80;100159.00;;;;346167;28;83219;-90
2022/07/07 00:55:21;;;;;;;;;;;19.70;74.70;19.80;100155.00;;;;345086;28;96315;-89
2022/07/07 00:55:33;;;;;;;;;;;19.70;74.60;19.80;100164.00;;;;346232;28;83394;-88
2022/07/07 00:55:45;;;;;;;;;;;19.70;74.70;19.80;100164.00;;;;344038;28;94240;-89
2022/07/07 00:55:57;;;;;;;;;;;19.70;74.70;19.80;100158.00;;;;345437;28;82443;-90
2022/07/07 00:56:08;;;;;;;;;;;19.70;74.70;19.70;100154.00;;;;343892;28;95422;-89
2022/07/07 00:56:20;;;;;;;;;;;19.70;74.70;19.70;100155.00;;;;344764;28;82305;-90
2022/07/07 00:56:32;;;;;;;;;;;19.70;74.60;19.70;100161.00;;;;343937;28;94070;-90
2022/07/07 00:56:44;;;;;;;;;;;19.60;74.60;19.70;100152.00;;;;344373;28;82363;-90
2022/07/07 00:56:59;;;;;;;;;;;19.70;75.20;19.70;100160.00;;;;342761;28;91974;-90
2022/07/07 00:57:30;;;;;;;;;;;19.70;75.00;19.70;100161.00;;;;341897;28;84012;-90
2022/07/07 00:57:42;;;;;;;;;;;19.60;75.20;19.70;100153.00;;;;343994;28;93895;-90
2022/07/07 00:57:54;;;;;;;;;;;19.60;75.40;19.70;100156.00;;;;345941;28;83412;-90
2022/07/07 00:58:06;;;;;;;;;;;19.60;74.80;19.80;100153.00;;;;342511;28;94537;-90
2022/07/07 00:58:18;;;;;;;;;;;19.60;74.80;19.80;100153.00;;;;342080;28;82297;-89
2022/07/07 00:58:29;;;;;;;;;;;19.60;74.80;19.80;100155.00;;;;342625;28;94105;-90
2022/07/07 00:58:41;;;;;;;;;;;19.60;75.00;19.80;100155.00;;;;341962;28;83353;-89
2022/07/07 00:58:53;;;;;;;;;;;19.60;74.80;19.80;100156.00;;;;342132;28;96670;-90
2022/07/07 00:59:08;;;;;;;;;;;19.70;75.00;19.80;100153.00;;;;343980;28;83341;-89
2022/07/07 00:59:19;;;;;;;;;;;19.70;74.80;19.70;100155.00;;;;343273;28;94431;-90